Ava, New York
Current Conditions -  °F | °C
As of 11:53 PM on Monday 20 Oct 2014 (Local Time) from KRME Reporting Station
Light Rain Light Rain  
Wind Chill: 46°   Ceiling: 5000
Heat Index: 48°   Visibility: 10mi
Dew Point: 43°   Wind: 5mph
Humidity: 83%   Direction: 110°ESE
Pressure: 29.9"   Gusts: NA
Location:  43.42°N, 75.48°W
Report Text: KRME 210353Z AUTO 11004KT 10SM -RA BKN050 BKN070 OVC090 09/06 A2990 RMK AO2 RAE19B42 SLP125 P0000 T00890061
Loading
Personal Weather Stations






























Interactive Weather Map New forecast layout! Learn more

10-Day Weather Forecast

Advertisements
Track Severe Weather on mobile